Time;durP1;ratioP1;P1;durP2;ratioP2;P2;SDS_P1;SDS_P2;PMS_P1;PMS_P2;Temp;Humidity;BMP_temperature;BMP_pressure;BME280_temperature;BME280_humidity;BME280_pressure;Samples;Min_cycle;Max_cycle;Signal;HPM_P1;HPM_P2
2021/10/26 00:02:24;;;;;;;22.90;10.63;;;;;;;-2.11;83.60;94012.86;1782304;79;21754;-88
2021/10/26 00:04:50;;;;;;;16.45;8.58;;;;;;;-2.13;83.65;94008.39;1767743;79;21157;-88
2021/10/26 00:07:17;;;;;;;11.80;6.78;;;;;;;-2.10;83.81;94009.13;1794446;78;21101;-89
2021/10/26 00:09:43;;;;;;;13.18;6.92;;;;;;;-2.09;84.27;94002.70;1757347;80;21081;-89
2021/10/26 00:12:10;;;;;;;13.30;6.83;;;;;;;-2.07;84.47;94001.87;1769315;79;21415;-89
2021/10/26 00:14:38;;;;;;;13.20;6.05;;;;;;;-2.08;84.50;94006.16;1774220;80;21022;-89
2021/10/26 00:17:05;;;;;;;13.83;5.83;;;;;;;-2.12;84.62;93996.64;1772406;80;21114;-89
2021/10/26 00:19:32;;;;;;;17.42;8.48;;;;;;;-2.13;85.14;94001.73;1788233;78;21089;-88
2021/10/26 00:21:59;;;;;;;14.43;7.30;;;;;;;-2.14;85.37;94000.69;1767448;79;21165;-88
2021/10/26 00:24:26;;;;;;;20.75;10.55;;;;;;;-2.14;85.20;93989.51;1717815;81;21038;-88
2021/10/26 00:26:52;;;;;;;16.05;8.78;;;;;;;-2.11;84.99;93986.22;1749591;78;21055;-89
2021/10/26 00:29:20;;;;;;;12.45;7.55;;;;;;;-2.10;84.66;93987.81;1772246;80;21333;-89
2021/10/26 00:31:47;;;;;;;16.50;8.48;;;;;;;-2.12;84.64;93985.20;1768223;79;21074;-89
2021/10/26 00:34:13;;;;;;;21.73;9.53;;;;;;;-2.12;84.81;93977.20;1790652;78;21161;-89
2021/10/26 00:36:40;;;;;;;16.10;8.45;;;;;;;-2.13;84.58;93979.08;1785267;78;21057;-88
2021/10/26 00:39:06;;;;;;;18.07;8.75;;;;;;;-2.17;84.65;93982.66;1756746;78;21046;-88
2021/10/26 00:41:33;;;;;;;26.07;11.18;;;;;;;-2.22;84.43;93979.55;1742208;80;21070;-89
2021/10/26 00:44:00;;;;;;;15.73;8.37;;;;;;;-2.29;84.50;93979.20;1769574;80;21243;-89
2021/10/26 00:46:31;;;;;;;17.23;8.25;;;;;;;-2.33;84.68;93971.02;1711383;81;21764;-89
2021/10/26 00:48:59;;;;;;;18.40;8.60;;;;;;;-2.33;84.92;93975.53;1675952;83;21541;-89
2021/10/26 00:51:25;;;;;;;17.00;8.68;;;;;;;-2.32;85.00;93967.25;1752011;80;21050;-88
2021/10/26 00:53:52;;;;;;;15.63;8.53;;;;;;;-2.29;84.95;93969.88;1776522;80;21432;-88
2021/10/26 00:56:19;;;;;;;17.20;7.85;;;;;;;-2.30;85.07;93969.60;1728772;80;21552;-88
2021/10/26 00:58:46;;;;;;;16.87;8.10;;;;;;;-2.34;84.83;93960.09;1801917;79;21057;-88
2021/10/26 01:01:12;;;;;;;15.13;8.18;;;;;;;-2.35;84.89;93967.06;1786129;78;22352;-89
2021/10/26 01:03:38;;;;;;;12.53;7.70;;;;;;;-2.36;84.93;93963.62;1718589;80;21085;-88
2021/10/26 01:06:05;;;;;;;12.80;6.70;;;;;;;-2.33;84.82;93967.53;1703505;82;21153;-88
2021/10/26 01:08:31;;;;;;;14.07;7.50;;;;;;;-2.32;84.76;93960.59;1754770;81;21021;-86
2021/10/26 01:10:59;;;;;;;14.73;7.43;;;;;;;-2.36;85.01;93962.28;1719797;79;21123;-87
2021/10/26 01:13:27;;;;;;;13.98;7.50;;;;;;;-2.41;85.02;93957.60;1785974;78;21105;-89
2021/10/26 01:15:56;;;;;;;12.35;6.97;;;;;;;-2.46;85.11;93959.29;1736003;81;21672;-89
2021/10/26 01:18:28;;;;;;;14.07;7.50;;;;;;;-2.47;85.16;93954.27;1764450;80;21485;-89
2021/10/26 01:20:54;;;;;;;13.90;7.47;;;;;;;-2.49;85.18;93955.11;1748255;80;21037;-87
2021/10/26 01:23:23;;;;;;;16.13;7.30;;;;;;;-2.54;85.40;93957.89;1743103;80;21643;-88
2021/10/26 01:25:50;;;;;;;19.70;9.23;;;;;;;-2.56;85.54;93961.38;1695968;83;21073;-88
2021/10/26 01:28:17;;;;;;;19.13;8.17;;;;;;;-2.59;85.36;93956.13;1695350;82;21150;-88
2021/10/26 01:30:43;;;;;;;11.07;6.07;;;;;;;-2.62;85.28;93947.95;1719033;81;21083;-88
2021/10/26 01:33:15;;;;;;;11.63;6.78;;;;;;;-2.61;85.43;93947.64;1721582;81;21062;-88
2021/10/26 01:35:43;;;;;;;11.83;6.70;;;;;;;-2.62;85.55;93943.41;1737524;80;21148;-88
2021/10/26 01:38:10;;;;;;;16.07;7.73;;;;;;;-2.67;85.42;93940.87;1784426;79;21071;-88
2021/10/26 01:40:37;;;;;;;12.67;6.27;;;;;;;-2.71;85.59;93936.69;1750987;80;21108;-88
2021/10/26 01:43:04;;;;;;;11.27;5.93;;;;;;;-2.71;85.67;93937.20;1755672;80;21090;-88
2021/10/26 01:45:32;;;;;;;13.45;7.55;;;;;;;-2.71;85.98;93939.34;1791706;79;21528;-87
2021/10/26 01:48:00;;;;;;;12.57;7.10;;;;;;;-2.70;86.22;93933.48;1808174;79;21041;-87
2021/10/26 01:50:27;;;;;;;13.27;7.20;;;;;;;-2.71;86.17;93926.55;1783880;79;21106;-88
2021/10/26 01:52:54;;;;;;;15.73;7.70;;;;;;;-2.73;86.65;93925.53;1728415;82;21034;-87
2021/10/26 01:55:21;;;;;;;17.73;8.80;;;;;;;-2.72;86.95;93923.11;1742212;80;21508;-88
2021/10/26 01:57:49;;;;;;;14.27;8.00;;;;;;;-2.70;87.00;93919.61;1777455;79;21055;-87
2021/10/26 02:00:29;;;;;;;15.65;7.47;;;;;;;-2.69;86.71;93927.84;1778996;78;21710;-88
2021/10/26 02:02:56;;;;;;;17.20;8.43;;;;;;;-2.70;86.70;93928.15;1792077;78;21050;-88
2021/10/26 02:05:22;;;;;;;13.47;7.23;;;;;;;-2.73;86.84;93919.42;1799207;78;20987;-87
2021/10/26 02:07:50;;;;;;;12.10;6.37;;;;;;;-2.77;87.16;93921.11;1786021;78;21089;-88
2021/10/26 02:10:20;;;;;;;16.60;8.20;;;;;;;-2.78;87.13;93916.88;1772062;80;21030;-87
2021/10/26 02:12:45;;;;;;;14.30;6.30;;;;;;;-2.82;87.19;93914.03;1734807;82;21643;-88
2021/10/26 02:15:13;;;;;;;16.17;8.20;;;;;;;-2.83;87.22;93920.41;1750877;81;20990;-88
2021/10/26 02:17:40;;;;;;;14.33;7.50;;;;;;;-2.86;87.25;93920.23;1764185;78;21018;-88
2021/10/26 02:20:10;;;;;;;15.30;8.07;;;;;;;-2.90;87.53;93924.02;1795985;78;21492;-88
2021/10/26 02:22:38;;;;;;;16.40;9.00;;;;;;;-2.94;87.64;93915.84;1813749;77;21112;-88
2021/10/26 02:25:05;;;;;;;17.17;7.80;;;;;;;-2.96;87.91;93914.05;1786446;79;21104;-88
2021/10/26 02:27:33;;;;;;;17.47;8.43;;;;;;;-2.95;88.12;93909.50;1771562;79;21066;-88
2021/10/26 02:30:00;;;;;;;12.33;5.50;;;;;;;-2.95;88.08;93916.16;1782682;79;21519;-88
2021/10/26 02:32:27;;;;;;;16.10;7.83;;;;;;;-2.97;87.95;93905.82;1813616;79;21057;-87
2021/10/26 02:34:53;;;;;;;16.03;8.03;;;;;;;-3.01;87.79;93910.69;1787549;78;21083;-87
2021/10/26 02:37:20;;;;;;;12.47;7.27;;;;;;;-3.03;88.02;93914.98;1801291;79;21465;-88
2021/10/26 02:39:46;;;;;;;13.57;7.27;;;;;;;-3.03;88.21;93908.88;1786107;78;21038;-88
2021/10/26 02:42:13;;;;;;;12.67;7.20;;;;;;;-3.02;88.37;93913.89;1772849;79;21003;-87
2021/10/26 02:44:40;;;;;;;11.43;6.50;;;;;;;-3.01;88.08;93909.35;1774525;79;21050;-87
2021/10/26 02:47:06;;;;;;;14.70;6.63;;;;;;;-3.03;88.09;93912.33;1813010;78;21480;-89
2021/10/26 02:49:33;;;;;;;15.13;7.20;;;;;;;-3.03;88.16;93914.98;1780888;79;21130;-87
2021/10/26 02:52:00;;;;;;;14.20;7.43;;;;;;;-3.04;87.88;93921.40;1756357;80;20999;-87
2021/10/26 02:54:26;;;;;;;13.90;7.53;;;;;;;-3.08;87.78;93912.44;1756315;80;21014;-88
2021/10/26 02:56:52;;;;;;;12.43;6.03;;;;;;;-3.14;87.72;93908.30;1799472;78;21006;-87
2021/10/26 02:59:21;;;;;;;12.17;7.00;;;;;;;-3.13;88.08;93909.08;1773546;80;21065;-87
2021/10/26 03:01:47;;;;;;;10.20;5.10;;;;;;;-3.10;88.12;93907.94;1723405;80;21465;-86
2021/10/26 03:04:14;;;;;;;11.80;6.37;;;;;;;-3.07;88.31;93904.70;1775113;79;21145;-88
2021/10/26 03:06:43;;;;;;;9.70;5.30;;;;;;;-2.99;89.23;93904.53;1764222;79;21001;-87
2021/10/26 03:09:11;;;;;;;7.50;3.90;;;;;;;-2.95;88.36;93902.84;1765443;79;21058;-87
2021/10/26 03:11:37;;;;;;;9.50;5.93;;;;;;;-2.97;88.07;93909.00;1714227;82;21075;-87
2021/10/26 03:14:05;;;;;;;12.70;6.77;;;;;;;-3.02;88.08;93904.58;1729120;81;21151;-87
2021/10/26 03:16:32;;;;;;;12.23;6.80;;;;;;;-3.04;88.10;93905.44;1747866;81;21078;-87
2021/10/26 03:18:58;;;;;;;15.33;7.83;;;;;;;-3.06;88.06;93906.27;1783385;78;21693;-87
2021/10/26 03:21:25;;;;;;;13.37;7.70;;;;;;;-3.07;88.02;93902.58;1781898;78;21045;-89
2021/10/26 03:23:51;;;;;;;12.97;7.07;;;;;;;-3.06;88.15;93908.14;1759647;79;21038;-87
2021/10/26 03:26:18;;;;;;;15.83;8.67;;;;;;;-3.04;88.16;93906.77;1785883;78;21146;-88
2021/10/26 03:28:45;;;;;;;18.10;9.37;;;;;;;-3.02;88.01;93903.80;1756106;79;21558;-87
2021/10/26 03:31:13;;;;;;;17.37;9.60;;;;;;;-2.99;87.88;93904.53;1776687;79;21421;-88
2021/10/26 03:33:51;;;;;;;17.20;8.43;;;;;;;-2.97;87.85;93907.67;1709240;79;21027;-87
2021/10/26 03:36:17;;;;;;;16.50;8.90;;;;;;;-2.95;87.81;93900.98;1747204;80;21163;-87
2021/10/26 03:38:44;;;;;;;14.20;8.47;;;;;;;-2.95;87.65;93902.30;1753208;80;21109;-87
2021/10/26 03:41:11;;;;;;;14.43;8.07;;;;;;;-2.97;87.43;93900.50;1760810;80;21091;-87
2021/10/26 03:43:39;;;;;;;17.13;8.63;;;;;;;-3.01;87.46;93896.86;1744439;80;21010;-87
2021/10/26 03:46:06;;;;;;;18.03;8.60;;;;;;;-3.04;87.68;93902.77;1735759;81;21056;-87
2021/10/26 03:48:33;;;;;;;11.63;7.17;;;;;;;-3.09;87.58;93890.11;1749298;80;21078;-87
2021/10/26 03:50:59;;;;;;;13.53;7.40;;;;;;;-3.14;87.73;93891.55;1754481;80;21726;-87
2021/10/26 03:53:27;;;;;;;13.13;6.43;;;;;;;-3.15;88.12;93893.97;1777645;79;21060;-87
2021/10/26 03:55:54;;;;;;;15.10;8.57;;;;;;;-3.15;88.11;93898.75;1761007;81;21027;-87
2021/10/26 03:58:22;;;;;;;12.97;7.37;;;;;;;-3.18;88.01;93894.02;1766623;80;21043;-86
2021/10/26 04:00:51;;;;;;;12.07;6.90;;;;;;;-3.22;87.87;93891.16;1773135;78;20968;-86
2021/10/26 04:03:19;;;;;;;15.77;8.17;;;;;;;-3.23;87.92;93898.91;1775305;78;21700;-87
2021/10/26 04:10:54;;;;;;;13.30;7.20;;;;;;;-3.29;87.91;93879.34;1736110;81;21042;-86
2021/10/26 04:13:22;;;;;;;14.13;7.83;;;;;;;-3.32;87.81;93883.38;1723747;80;21600;-86
2021/10/26 04:15:49;;;;;;;16.77;7.40;;;;;;;-3.30;87.90;93882.55;1748365;79;21121;-86
2021/10/26 04:18:16;;;;;;;11.57;6.43;;;;;;;-3.30;87.84;93886.55;1724796;81;21692;-87
2021/10/26 04:20:43;;;;;;;13.97;6.33;;;;;;;-3.29;87.84;93881.45;1733486;82;21078;-86
2021/10/26 04:23:09;;;;;;;9.83;6.03;;;;;;;-3.29;87.86;93880.67;1715521;81;21672;-86
2021/10/26 04:25:37;;;;;;;10.50;6.13;;;;;;;-3.27;87.97;93878.48;1743001;82;21079;-86
2021/10/26 04:28:04;;;;;;;10.00;7.10;;;;;;;-3.21;87.96;93878.64;1754152;80;21806;-87
2021/10/26 04:30:34;;;;;;;11.03;6.10;;;;;;;-3.18;87.86;93876.17;1789174;78;21073;-86
2021/10/26 04:33:02;;;;;;;17.13;9.60;;;;;;;-3.16;87.87;93879.86;1770366;79;21075;-86
2021/10/26 04:35:29;;;;;;;17.73;8.70;;;;;;;-3.17;87.61;93879.08;1781947;80;21058;-86
2021/10/26 04:37:55;;;;;;;34.73;16.57;;;;;;;-3.17;87.43;93879.63;1753118;79;21037;-86
2021/10/26 04:40:21;;;;;;;25.20;12.73;;;;;;;-3.17;87.37;93880.41;1760563;79;21098;-86
2021/10/26 04:42:48;;;;;;;26.17;14.53;;;;;;;-3.17;87.26;93873.75;1756597;78;21074;-86
2021/10/26 04:45:14;;;;;;;16.77;8.47;;;;;;;-3.19;87.37;93874.61;1739175;81;21241;-86
2021/10/26 04:47:45;;;;;;;18.33;9.87;;;;;;;-3.18;87.42;93867.41;1741850;79;21099;-86
2021/10/26 04:50:13;;;;;;;15.97;8.67;;;;;;;-3.22;87.25;93874.41;1777923;78;21033;-86
2021/10/26 04:52:40;;;;;;;15.00;7.87;;;;;;;-3.28;87.30;93872.39;1768722;78;21863;-86
2021/10/26 04:55:07;;;;;;;12.27;6.40;;;;;;;-3.29;87.53;93876.14;1763560;80;21118;-86
2021/10/26 04:57:35;;;;;;;17.07;8.37;;;;;;;-3.33;87.75;93870.39;1763850;80;20998;-86
2021/10/26 05:00:18;;;;;;;15.57;8.53;;;;;;;-3.40;87.87;93874.77;1774126;80;21515;-86
2021/10/26 05:02:45;;;;;;;19.37;9.40;;;;;;;-3.51;88.09;93867.53;1732372;80;21092;-87
2021/10/26 05:05:11;;;;;;;15.67;9.40;;;;;;;-3.58;88.19;93866.34;1755041;80;21591;-86
2021/10/26 05:07:39;;;;;;;17.70;9.50;;;;;;;-3.63;88.03;93865.13;1768048;79;21104;-86
2021/10/26 05:10:07;;;;;;;15.63;8.43;;;;;;;-3.69;87.95;93861.22;1765932;78;21064;-87
2021/10/26 05:12:33;;;;;;;19.47;9.90;;;;;;;-3.70;88.29;93863.63;1761287;79;21178;-86
2021/10/26 05:15:00;;;;;;;18.63;9.47;;;;;;;-3.69;88.50;93861.77;1760017;80;21494;-86
2021/10/26 05:17:32;;;;;;;16.40;8.60;;;;;;;-3.67;88.51;93863.05;1758954;80;22031;-86
2021/10/26 05:20:18;;;;;;;14.00;7.75;;;;;;;-3.62;88.54;93872.01;1760300;80;21039;-87
2021/10/26 05:22:49;;;;;;;17.23;9.37;;;;;;;-3.57;88.66;93869.24;1770604;79;21104;-88
2021/10/26 05:25:18;;;;;;;16.27;8.37;;;;;;;-3.52;88.63;93873.16;1759231;79;21067;-87
2021/10/26 05:27:58;;;;;;;15.60;8.57;;;;;;;-3.48;88.48;93866.94;1755689;78;21095;-87
2021/10/26 05:30:25;;;;;;;14.53;8.70;;;;;;;-3.48;88.18;93868.27;1767421;80;21481;-88
2021/10/26 05:32:51;;;;;;;17.60;8.97;;;;;;;-3.51;88.18;93870.19;1748884;80;21519;-88
2021/10/26 05:35:17;;;;;;;17.07;9.50;;;;;;;-3.52;88.29;93865.96;1727534;81;21098;-88
2021/10/26 05:37:44;;;;;;;30.87;15.53;;;;;;;-3.49;88.38;93876.55;1748372;78;21815;-87
2021/10/26 05:40:11;;;;;;;27.47;15.50;;;;;;;-3.48;88.61;93867.48;1761351;80;21070;-88
2021/10/26 05:57:22;;;;;;;;;;;;;;;-2.02;86.32;93869.04;1716378;80;21004;-88
2021/10/26 05:59:50;;;;;;;18.20;9.80;;;;;;;-1.89;85.90;93869.49;1742367;81;21128;-88
2021/10/26 06:02:17;;;;;;;18.37;9.83;;;;;;;-1.75;85.53;93865.41;1706371;80;21415;-88
2021/10/26 06:04:43;;;;;;;18.55;9.08;;;;;;;-1.57;84.58;93875.06;1723590;81;21068;-89
2021/10/26 06:07:10;;;;;;;17.50;8.93;;;;;;;-1.46;83.63;93868.92;1693488;83;21094;-88
2021/10/26 06:09:41;;;;;;;16.48;7.83;;;;;;;-1.39;82.30;93877.27;1700328;82;22137;-88
2021/10/26 06:12:14;;;;;;;12.33;8.30;;;;;;;-1.35;81.76;93872.87;1707180;82;21747;-88
2021/10/26 06:14:36;;;;;;;10.55;7.78;;;;;;;-1.19;81.96;93873.79;1690930;83;21043;-89
2021/10/26 06:17:05;;;;;;;13.35;7.67;;;;;;;-1.10;81.48;93875.92;1697586;82;21049;-89
2021/10/26 06:19:34;;;;;;;13.45;8.70;;;;;;;-1.04;80.61;93874.14;1727395;80;21094;-88
2021/10/26 06:22:00;;;;;;;15.55;8.85;;;;;;;-0.95;79.27;93874.70;1755021;80;21251;-89
2021/10/26 06:24:27;;;;;;;19.35;10.38;;;;;;;-0.91;79.06;93873.76;1678243;82;21079;-90
2021/10/26 06:26:53;;;;;;;23.50;12.10;;;;;;;-0.83;78.64;93877.54;1751650;80;21152;-90
2021/10/26 06:29:20;;;;;;;17.15;9.93;;;;;;;-0.71;78.62;93876.92;1752153;80;21545;-89
2021/10/26 06:32:06;;;;;;;17.67;10.03;;;;;;;-0.53;78.03;93875.84;1751035;80;21268;-89
2021/10/26 06:34:33;;;;;;;16.67;9.55;;;;;;;-0.21;77.18;93872.47;1750813;80;21137;-90
2021/10/26 06:37:00;;;;;;;13.70;8.70;;;;;;;0.17;75.70;93869.33;1748382;80;21058;-90
2021/10/26 06:39:30;;;;;;;16.48;9.25;;;;;;;0.57;73.92;93870.41;1751736;80;21067;-91
2021/10/26 06:41:58;;;;;;;19.00;10.32;;;;;;;0.86;72.34;93862.15;1752498;80;21433;-91
2021/10/26 06:44:42;;;;;;;15.60;9.53;;;;;;;1.01;71.12;93861.59;1750169;80;21141;-90
2021/10/26 06:47:27;;;;;;;18.48;11.28;;;;;;;1.25;70.81;93862.34;1749804;80;21098;-89
2021/10/26 06:50:14;;;;;;;18.25;11.03;;;;;;;1.48;69.64;93866.05;1747686;80;21136;-89
2021/10/26 06:52:58;;;;;;;18.57;11.28;;;;;;;1.73;69.04;93858.89;1750758;80;21254;-90
2021/10/26 06:55:44;;;;;;;18.73;11.43;;;;;;;2.01;68.71;93866.63;1754218;80;26579;-90
2021/10/26 06:58:28;;;;;;;15.87;10.63;;;;;;;2.11;67.22;93860.86;1704056;81;21079;-90
2021/10/26 07:01:09;;;;;;;12.75;8.68;;;;;;;2.08;66.81;93858.05;1656169;80;21394;-91
2021/10/26 07:03:55;;;;;;;13.98;8.48;;;;;;;1.99;67.01;93855.42;1744283;80;21118;-91
2021/10/26 07:06:29;;;;;;;12.88;7.85;;;;;;;1.92;66.66;93856.55;1744583;79;21651;-91
2021/10/26 07:08:59;;;;;;;15.23;9.75;;;;;;;1.99;67.38;93854.09;1746564;80;21054;-91
2021/10/26 07:11:34;;;;;;;12.35;8.80;;;;;;;2.24;67.08;93855.52;1742380;80;21114;-91
2021/10/26 07:14:03;;;;;;;14.53;8.90;;;;;;;2.61;66.31;93846.98;1744141;80;21070;-91
2021/10/26 07:16:33;;;;;;;12.20;7.37;;;;;;;3.00;65.66;93842.06;1738487;80;21760;-92
2021/10/26 07:18:59;;;;;;;16.32;8.08;;;;;;;3.39;63.86;93845.95;1713366;80;21090;-93
2021/10/26 07:21:27;;;;;;;18.80;12.88;;;;;;;3.80;63.05;93842.69;1749451;79;21107;-92
2021/10/26 07:24:12;;;;;;;12.33;7.92;;;;;;;4.21;62.05;93839.38;1748702;80;21065;-92
2021/10/26 07:26:51;;;;;;;13.98;8.73;;;;;;;4.78;58.37;93830.08;1735011;80;21030;-92
2021/10/26 07:29:20;;;;;;;13.20;8.38;;;;;;;5.34;57.25;93824.42;1761026;80;21116;-92
2021/10/26 07:31:48;;;;;;;10.30;7.20;;;;;;;5.79;55.34;93820.36;1731549;80;20995;-92
2021/10/26 07:34:15;;;;;;;17.90;11.30;;;;;;;5.96;54.05;93821.33;1747176;80;21065;-91
2021/10/26 07:36:46;;;;;;;10.53;7.70;;;;;;;5.88;54.70;93816.12;1748661;79;21054;-91
2021/10/26 07:39:32;;;;;;;18.20;12.28;;;;;;;5.87;53.59;93812.64;1745495;80;21546;-92
2021/10/26 07:41:48;;;;;;;21.33;14.60;;;;;;;5.92;53.81;93821.83;1740784;80;21154;-93
2021/10/26 07:44:33;;;;;;;27.22;16.73;;;;;;;5.96;53.43;93818.63;1734350;81;21537;-92
2021/10/26 07:47:02;;;;;;;20.08;11.53;;;;;;;6.15;53.90;93808.95;1718870;80;21413;-93
2021/10/26 07:49:30;;;;;;;14.10;8.70;;;;;;;6.43;52.58;93810.84;1746546;78;21671;-93
2021/10/26 07:51:58;;;;;;;11.83;8.15;;;;;;;6.68;51.49;93803.72;1744346;79;21168;-92
2021/10/26 07:54:25;;;;;;;10.72;7.33;;;;;;;6.86;51.07;93806.16;1701658;82;22110;-94
2021/10/26 07:56:52;;;;;;;10.53;7.33;;;;;;;6.98;50.68;93804.60;1738590;80;21089;-94
2021/10/26 07:59:21;;;;;;;12.30;7.15;;;;;;;7.01;50.25;93799.05;1727771;81;21145;-91
2021/10/26 08:01:48;;;;;;;12.95;7.30;;;;;;;6.97;49.70;93803.63;1738295;80;21064;-91
2021/10/26 08:04:21;;;;;;;14.65;10.28;;;;;;;6.92;49.15;93799.30;1698569;81;21015;-92
2021/10/26 08:09:58;;;;;;;19.55;13.28;;;;;;;7.30;48.79;93796.98;1717151;81;21482;-90
2021/10/26 08:12:27;;;;;;;19.85;13.15;;;;;;;7.68;46.74;93787.05;1713537;81;21055;-90
2021/10/26 08:15:00;;;;;;;14.78;9.83;;;;;;;7.83;45.78;93791.30;1682226;82;21038;-91
2021/10/26 08:17:27;;;;;;;19.52;12.88;;;;;;;8.00;44.71;93783.94;1716613;80;21019;-92
2021/10/26 08:19:54;;;;;;;10.70;7.65;;;;;;;8.22;44.85;93783.61;1729471;80;21936;-92
2021/10/26 08:22:27;;;;;;;9.08;5.80;;;;;;;8.58;44.43;93782.08;1681876;83;21121;-93
2021/10/26 08:24:59;;;;;;;8.58;5.90;;;;;;;8.95;43.16;93774.42;1709844;81;21054;-92
2021/10/26 08:27:31;;;;;;;10.40;6.35;;;;;;;9.30;42.47;93773.92;1690812;81;21109;-93
2021/10/26 08:30:10;;;;;;;12.15;6.75;;;;;;;9.62;41.60;93763.82;1716412;80;21082;-93
2021/10/26 08:35:31;;;;;;;10.60;7.33;;;;;;;9.96;39.52;93765.13;1749765;80;21313;-92
2021/10/26 08:38:05;;;;;;;8.88;6.42;;;;;;;10.10;39.06;93761.70;1718955;82;21023;-94
2021/10/26 08:40:37;;;;;;;9.78;6.72;;;;;;;10.19;39.56;93758.61;1675682;82;21146;-92
2021/10/26 08:43:09;;;;;;;10.68;7.28;;;;;;;10.28;39.00;93751.50;1674403;84;21547;-95
2021/10/26 08:45:40;;;;;;;9.43;7.08;;;;;;;10.29;38.04;93757.90;1654027;84;21341;-92
2021/10/26 08:48:11;;;;;;;6.65;4.67;;;;;;;10.28;37.94;93750.14;1688473;83;21126;-95
2021/10/26 08:50:51;;;;;;;8.58;5.00;;;;;;;10.27;38.04;93749.92;1697392;83;21110;-94
2021/10/26 08:53:20;;;;;;;7.20;5.78;;;;;;;10.36;38.55;93757.92;1682581;83;21101;-96
2021/10/26 08:55:59;;;;;;;6.70;5.30;;;;;;;10.61;37.53;93753.89;1670668;80;21579;-95
2021/10/26 08:58:44;;;;;;;5.10;4.12;;;;;;;10.94;37.61;93753.31;1744002;80;21502;-93
